Time;durP1;ratioP1;P1;durP2;ratioP2;P2;SDS_P1;SDS_P2;PMS_P1;PMS_P2;Temp;Humidity;BMP_temperature;BMP_pressure;BME280_temperature;BME280_humidity;BME280_pressure;Samples;Min_cycle;Max_cycle;Signal;HPM_P1;HPM_P2
2023/08/08 00:01:10;;;;;;;;;;;18.10;68.30;;;;;;5094580;28;19969;-64
2023/08/08 00:03:36;;;;;;;;;;;18.10;68.40;;;;;;5095506;28;20018;-72
2023/08/08 00:06:01;;;;;;;;;;;18.20;68.40;;;;;;5095292;28;19920;-69
2023/08/08 00:08:27;;;;;;;;;;;18.20;68.40;;;;;;5095323;28;19920;-71
2023/08/08 00:10:52;;;;;;;;;;;18.10;68.40;;;;;;5077337;28;20448;-64
2023/08/08 00:13:18;;;;;;;;;;;18.10;68.40;;;;;;5095254;28;19971;-64
2023/08/08 00:15:43;;;;;;;;;;;18.20;68.50;;;;;;5077364;28;19919;-71
2023/08/08 00:18:09;;;;;;;;;;;18.20;68.50;;;;;;5077007;28;19928;-65
2023/08/08 00:20:35;;;;;;;;;;;18.10;68.40;;;;;;5095623;28;19920;-64
2023/08/08 00:23:00;;;;;;;;;;;18.10;68.40;;;;;;5095432;28;20023;-64
2023/08/08 00:25:26;;;;;;;;;;;18.10;68.50;;;;;;5077181;28;19927;-71
2023/08/08 00:27:51;;;;;;;;;;;18.10;68.50;;;;;;5095078;28;20378;-64
2023/08/08 00:30:17;;;;;;;;;;;18.10;68.50;;;;;;5076792;28;19924;-71
2023/08/08 00:32:42;;;;;;;;;;;18.10;68.50;;;;;;5076955;28;19920;-71
2023/08/08 00:35:08;;;;;;;;;;;18.10;68.50;;;;;;5076677;28;20016;-64
2023/08/08 00:37:34;;;;;;;;;;;18.10;68.50;;;;;;5094743;28;19943;-64
2023/08/08 00:39:59;;;;;;;;;;;18.10;68.50;;;;;;5076916;28;19928;-64
2023/08/08 00:42:25;;;;;;;;;;;18.10;68.50;;;;;;5076791;28;19985;-64
2023/08/08 00:44:50;;;;;;;;;;;18.10;68.50;;;;;;5076502;28;20428;-72
2023/08/08 00:47:16;;;;;;;;;;;18.10;68.50;;;;;;5076452;28;19920;-64
2023/08/08 00:49:43;;;;;;;;;;;18.10;68.50;;;;;;5076332;28;19924;-71
2023/08/08 00:52:09;;;;;;;;;;;18.10;68.50;;;;;;5076755;28;20018;-71
2023/08/08 00:54:35;;;;;;;;;;;18.10;68.50;;;;;;5076422;28;19959;-72
2023/08/08 00:57:00;;;;;;;;;;;18.10;68.50;;;;;;5076262;28;19978;-64
2023/08/08 00:59:26;;;;;;;;;;;18.10;68.50;;;;;;5094361;28;19931;-64
2023/08/08 01:01:52;;;;;;;;;;;18.10;68.50;;;;;;5076158;28;19967;-64
2023/08/08 01:04:18;;;;;;;;;;;18.10;68.50;;;;;;5076346;28;19963;-64
2023/08/08 01:07:03;;;;;;;;;;;18.10;68.60;;;;;;5092935;28;20379;-72
2023/08/08 01:09:31;;;;;;;;;;;18.10;68.60;;;;;;5093942;28;19996;-64
2023/08/08 01:11:58;;;;;;;;;;;18.10;68.60;;;;;;5094332;28;19966;-64
2023/08/08 01:14:24;;;;;;;;;;;18.10;68.60;;;;;;5093037;28;20053;-64
2023/08/08 01:16:51;;;;;;;;;;;18.10;68.60;;;;;;5075902;28;19958;-64
2023/08/08 01:19:23;;;;;;;;;;;18.10;68.60;;;;;;5093905;28;20387;-64
2023/08/08 01:21:52;;;;;;;;;;;18.10;68.60;;;;;;5093926;28;20287;-71
2023/08/08 01:24:19;;;;;;;;;;;18.10;68.60;;;;;;5092966;28;19920;-64
2023/08/08 01:26:45;;;;;;;;;;;18.10;68.60;;;;;;5076207;28;19920;-64
2023/08/08 01:29:11;;;;;;;;;;;18.10;68.70;;;;;;5093716;28;20329;-64
2023/08/08 01:31:36;;;;;;;;;;;18.10;68.60;;;;;;5093815;28;19927;-64
2023/08/08 01:34:02;;;;;;;;;;;18.10;68.70;;;;;;5075766;28;19927;-64
2023/08/08 01:36:29;;;;;;;;;;;18.10;68.70;;;;;;5075832;28;19920;-70
2023/08/08 01:38:59;;;;;;;;;;;18.10;68.70;;;;;;5075456;28;19920;-64
2023/08/08 01:41:25;;;;;;;;;;;18.10;68.70;;;;;;5075709;28;19924;-65
2023/08/08 01:43:51;;;;;;;;;;;18.10;68.70;;;;;;5075334;28;19927;-72
2023/08/08 01:46:17;;;;;;;;;;;18.10;68.70;;;;;;5075586;28;19985;-72
2023/08/08 01:48:44;;;;;;;;;;;18.00;68.70;;;;;;5088505;28;19928;-72
2023/08/08 01:51:10;;;;;;;;;;;18.00;68.70;;;;;;5072020;28;20019;-64
2023/08/08 01:53:35;;;;;;;;;;;18.10;68.80;;;;;;5072048;28;20026;-64
2023/08/08 01:56:02;;;;;;;;;;;18.00;68.70;;;;;;5071996;28;19921;-65
2023/08/08 01:58:28;;;;;;;;;;;18.10;68.80;;;;;;5071951;28;20366;-72
2023/08/08 02:00:53;;;;;;;;;;;18.00;68.70;;;;;;5071648;28;19976;-71
2023/08/08 02:03:19;;;;;;;;;;;18.10;68.80;;;;;;5071925;28;19978;-72
2023/08/08 02:05:44;;;;;;;;;;;18.10;68.80;;;;;;5072848;28;19983;-65
2023/08/08 02:08:10;;;;;;;;;;;18.00;68.80;;;;;;5071484;28;19999;-64
2023/08/08 02:10:35;;;;;;;;;;;18.00;68.80;;;;;;5072675;28;19920;-64
2023/08/08 02:13:01;;;;;;;;;;;18.10;68.80;;;;;;5071798;28;19924;-64
2023/08/08 02:15:26;;;;;;;;;;;18.10;68.90;;;;;;5071400;28;20372;-72
2023/08/08 02:17:52;;;;;;;;;;;18.10;68.90;;;;;;5072684;28;20049;-64
2023/08/08 02:20:18;;;;;;;;;;;18.10;68.90;;;;;;5071197;28;19927;-64
2023/08/08 02:22:43;;;;;;;;;;;18.00;68.90;;;;;;5071397;28;19925;-71
2023/08/08 02:25:08;;;;;;;;;;;18.00;68.90;;;;;;5070641;28;19921;-71
2023/08/08 02:27:34;;;;;;;;;;;18.10;69.70;;;;;;5071444;28;20314;-72
2023/08/08 02:29:59;;;;;;;;;;;18.00;68.90;;;;;;5071165;28;19947;-64
2023/08/08 02:32:25;;;;;;;;;;;18.00;68.90;;;;;;5072537;28;20055;-71
2023/08/08 02:34:50;;;;;;;;;;;18.10;69.00;;;;;;5072547;28;19946;-64
2023/08/08 02:37:16;;;;;;;;;;;18.00;69.00;;;;;;5072424;28;19947;-71
2023/08/08 02:39:42;;;;;;;;;;;18.00;69.00;;;;;;5071115;28;19964;-64
2023/08/08 02:42:08;;;;;;;;;;;18.10;69.00;;;;;;5071296;28;19927;-72
2023/08/08 02:44:33;;;;;;;;;;;18.10;69.00;;;;;;5072531;28;19921;-64
2023/08/08 02:46:59;;;;;;;;;;;18.00;69.00;;;;;;5072397;28;20364;-72
2023/08/08 02:49:24;;;;;;;;;;;18.00;69.00;;;;;;5070857;28;19925;-64
2023/08/08 02:51:50;;;;;;;;;;;18.00;69.00;;;;;;5070923;28;19973;-64
2023/08/08 02:54:15;;;;;;;;;;;18.00;69.00;;;;;;5071128;28;19920;-72
2023/08/08 02:56:41;;;;;;;;;;;18.00;69.00;;;;;;5070918;28;19927;-72
2023/08/08 02:59:06;;;;;;;;;;;18.00;69.00;;;;;;5071236;28;19920;-64
2023/08/08 03:01:31;;;;;;;;;;;18.10;69.10;;;;;;5072070;28;19928;-64
2023/08/08 03:03:57;;;;;;;;;;;18.00;69.00;;;;;;5072241;28;19920;-71
2023/08/08 03:06:22;;;;;;;;;;;18.00;69.10;;;;;;5071101;28;20171;-64
2023/08/08 03:08:48;;;;;;;;;;;18.00;69.10;;;;;;5071964;28;20411;-72
2023/08/08 03:11:13;;;;;;;;;;;18.00;69.10;;;;;;5071029;28;19921;-64
2023/08/08 03:13:39;;;;;;;;;;;18.00;69.10;;;;;;5071121;28;19925;-65
2023/08/08 03:16:04;;;;;;;;;;;18.00;69.10;;;;;;5072163;28;20038;-64
2023/08/08 03:18:30;;;;;;;;;;;18.00;69.10;;;;;;5070929;28;19920;-64
2023/08/08 03:20:55;;;;;;;;;;;18.00;69.10;;;;;;5072017;28;20379;-65
2023/08/08 03:23:23;;;;;;;;;;;18.00;69.10;;;;;;5071964;28;19960;-64
2023/08/08 03:25:48;;;;;;;;;;;18.00;69.10;;;;;;5070106;28;19943;-64
2023/08/08 03:28:14;;;;;;;;;;;18.00;69.20;;;;;;5070408;28;20371;-72
2023/08/08 03:30:39;;;;;;;;;;;18.00;69.20;;;;;;5070562;28;20340;-64
2023/08/08 03:33:05;;;;;;;;;;;18.00;69.20;;;;;;5074053;28;19920;-72
2023/08/08 03:35:30;;;;;;;;;;;18.00;69.20;;;;;;5075903;28;19978;-64
2023/08/08 03:37:56;;;;;;;;;;;18.00;69.20;;;;;;5074656;28;19920;-64
2023/08/08 03:40:21;;;;;;;;;;;18.00;69.20;;;;;;5074347;28;20015;-72
2023/08/08 03:42:47;;;;;;;;;;;18.00;69.20;;;;;;5074695;28;19924;-71
2023/08/08 03:45:12;;;;;;;;;;;18.00;69.30;;;;;;5074248;28;20292;-64
2023/08/08 03:47:37;;;;;;;;;;;18.00;69.20;;;;;;5075723;28;19921;-64
2023/08/08 03:50:04;;;;;;;;;;;18.00;69.30;;;;;;5073986;28;20338;-64
2023/08/08 03:52:30;;;;;;;;;;;18.00;69.20;;;;;;5074201;28;19968;-64
2023/08/08 03:54:55;;;;;;;;;;;18.00;69.30;;;;;;5075316;28;19986;-64
2023/08/08 03:57:21;;;;;;;;;;;18.00;69.30;;;;;;5073968;28;19921;-64
2023/08/08 03:59:46;;;;;;;;;;;18.00;70.00;;;;;;5075253;28;19924;-65
2023/08/08 04:02:12;;;;;;;;;;;18.00;69.30;;;;;;5075244;28;19989;-64
2023/08/08 04:04:38;;;;;;;;;;;18.00;69.30;;;;;;5073871;28;19924;-64
2023/08/08 04:07:04;;;;;;;;;;;18.00;69.30;;;;;;5073911;28;20384;-64
2023/08/08 04:09:29;;;;;;;;;;;18.00;69.20;;;;;;5075022;28;19928;-64
2023/08/08 04:11:55;;;;;;;;;;;18.00;69.20;;;;;;5073340;28;20372;-65
2023/08/08 04:14:20;;;;;;;;;;;18.00;69.20;;;;;;5075023;28;19920;-64
2023/08/08 04:16:46;;;;;;;;;;;18.00;69.20;;;;;;5075173;28;20007;-64
2023/08/08 04:19:11;;;;;;;;;;;18.00;69.30;;;;;;5074055;28;20298;-64
2023/08/08 04:21:37;;;;;;;;;;;18.00;69.30;;;;;;5073971;28;20397;-64
2023/08/08 04:24:02;;;;;;;;;;;18.00;69.20;;;;;;5073596;28;19921;-64
2023/08/08 04:26:28;;;;;;;;;;;18.00;69.20;;;;;;5073498;28;20003;-72
2023/08/08 04:28:55;;;;;;;;;;;18.00;69.30;;;;;;5074649;28;19924;-65
2023/08/08 04:31:23;;;;;;;;;;;18.00;69.30;;;;;;5073643;28;20329;-64
2023/08/08 04:33:48;;;;;;;;;;;17.90;69.20;;;;;;5073393;28;19921;-64
2023/08/08 04:36:14;;;;;;;;;;;18.00;69.30;;;;;;5074695;28;19928;-64
2023/08/08 04:38:39;;;;;;;;;;;17.90;69.20;;;;;;5073387;28;20394;-64
2023/08/08 04:41:05;;;;;;;;;;;17.90;69.20;;;;;;5073192;28;19921;-64
2023/08/08 04:43:30;;;;;;;;;;;18.00;69.30;;;;;;5073076;28;19920;-72
2023/08/08 04:45:56;;;;;;;;;;;17.90;69.20;;;;;;5073159;28;19970;-64
2023/08/08 04:48:21;;;;;;;;;;;17.90;69.20;;;;;;5074655;28;19928;-64
2023/08/08 04:50:47;;;;;;;;;;;18.00;69.20;;;;;;5076458;28;20015;-64
2023/08/08 04:53:12;;;;;;;;;;;18.00;69.20;;;;;;5076850;28;19920;-65
2023/08/08 04:55:38;;;;;;;;;;;18.00;69.20;;;;;;5076593;28;19926;-71
2023/08/08 04:58:03;;;;;;;;;;;17.90;69.20;;;;;;5094398;28;20401;-72
2023/08/08 05:00:29;;;;;;;;;;;17.90;69.20;;;;;;5094517;28;19920;-65
2023/08/08 05:02:54;;;;;;;;;;;17.90;69.20;;;;;;5094308;28;19970;-64
2023/08/08 05:05:20;;;;;;;;;;;17.90;69.20;;;;;;5094376;28;19920;-65
2023/08/08 05:07:45;;;;;;;;;;;17.90;69.10;;;;;;5076395;28;19927;-64
2023/08/08 05:10:11;;;;;;;;;;;17.90;69.20;;;;;;5094081;28;19924;-64
2023/08/08 05:12:36;;;;;;;;;;;18.00;69.20;;;;;;5076280;28;20462;-64
2023/08/08 05:15:02;;;;;;;;;;;17.90;69.10;;;;;;5075949;28;19930;-64
2023/08/08 05:17:29;;;;;;;;;;;17.90;69.10;;;;;;5094035;28;20022;-64
2023/08/08 05:19:55;;;;;;;;;;;17.90;69.10;;;;;;5094134;28;20285;-64
2023/08/08 05:22:20;;;;;;;;;;;17.90;69.20;;;;;;5076047;28;20011;-72
2023/08/08 05:24:46;;;;;;;;;;;17.90;69.10;;;;;;5075853;28;20015;-64
2023/08/08 05:27:11;;;;;;;;;;;17.90;69.10;;;;;;5092850;28;20013;-64
2023/08/08 05:29:38;;;;;;;;;;;17.90;69.10;;;;;;5093703;28;19924;-71
2023/08/08 05:32:06;;;;;;;;;;;17.90;69.10;;;;;;5093895;28;20332;-64
2023/08/08 05:34:32;;;;;;;;;;;17.90;69.10;;;;;;5075571;28;19920;-64
2023/08/08 05:36:57;;;;;;;;;;;17.90;69.10;;;;;;5092648;28;19920;-64
2023/08/08 05:39:23;;;;;;;;;;;17.90;69.10;;;;;;5093670;28;19974;-64
2023/08/08 05:41:48;;;;;;;;;;;17.90;69.10;;;;;;5075640;28;19931;-64
2023/08/08 05:44:14;;;;;;;;;;;17.90;69.10;;;;;;5075326;28;19952;-64
2023/08/08 05:46:39;;;;;;;;;;;17.90;69.10;;;;;;5075399;28;19920;-71
2023/08/08 05:49:06;;;;;;;;;;;17.90;69.10;;;;;;5075108;28;19974;-64
2023/08/08 05:51:32;;;;;;;;;;;17.90;69.10;;;;;;5075543;28;19924;-64
2023/08/08 05:53:57;;;;;;;;;;;17.90;69.10;;;;;;5092584;28;20393;-65
2023/08/08 05:56:23;;;;;;;;;;;17.90;69.10;;;;;;5093312;28;19965;-64
2023/08/08 05:58:48;;;;;;;;;;;17.90;69.10;;;;;;5093200;28;20335;-64
2023/08/08 06:01:14;;;;;;;;;;;17.90;69.10;;;;;;5074867;28;19920;-64
2023/08/08 06:03:39;;;;;;;;;;;17.90;69.10;;;;;;5093328;28;20018;-64
2023/08/08 06:06:06;;;;;;;;;;;17.90;69.10;;;;;;5074950;28;19927;-64
2023/08/08 06:08:31;;;;;;;;;;;17.90;69.10;;;;;;5093106;28;19927;-64
2023/08/08 06:10:57;;;;;;;;;;;17.90;69.10;;;;;;5074859;28;19920;-64
2023/08/08 06:13:23;;;;;;;;;;;17.90;69.10;;;;;;5075022;28;20394;-67
2023/08/08 06:15:48;;;;;;;;;;;17.90;69.10;;;;;;5075030;28;19997;-64
2023/08/08 06:18:14;;;;;;;;;;;17.90;69.10;;;;;;5074658;28;19920;-71
2023/08/08 06:20:39;;;;;;;;;;;17.90;69.10;;;;;;5092915;28;19927;-64
2023/08/08 06:23:05;;;;;;;;;;;17.90;69.10;;;;;;5074909;28;20432;-71
2023/08/08 06:25:30;;;;;;;;;;;17.90;69.10;;;;;;5074981;28;19942;-64
2023/08/08 06:27:56;;;;;;;;;;;17.90;69.10;;;;;;5074894;28;19920;-72
2023/08/08 06:30:21;;;;;;;;;;;17.90;69.10;;;;;;5074537;28;20196;-71
2023/08/08 06:32:47;;;;;;;;;;;17.90;69.10;;;;;;5075010;28;19974;-64
2023/08/08 06:35:12;;;;;;;;;;;17.90;69.10;;;;;;5092757;28;20481;-64
2023/08/08 06:37:38;;;;;;;;;;;17.90;69.10;;;;;;5074855;28;19924;-65
2023/08/08 06:40:07;;;;;;;;;;;17.90;69.10;;;;;;5074363;28;19927;-65
2023/08/08 06:42:32;;;;;;;;;;;17.90;69.10;;;;;;5092577;28;19920;-64
2023/08/08 06:44:58;;;;;;;;;;;17.90;69.10;;;;;;5074393;28;19927;-64
2023/08/08 06:47:23;;;;;;;;;;;17.90;69.10;;;;;;5074632;28;19940;-71
2023/08/08 06:49:49;;;;;;;;;;;17.90;69.10;;;;;;5092116;28;19924;-66
2023/08/08 06:52:14;;;;;;;;;;;17.90;69.10;;;;;;5074369;28;19927;-66
2023/08/08 06:54:40;;;;;;;;;;;17.90;69.10;;;;;;5074415;28;20016;-70
2023/08/08 06:57:05;;;;;;;;;;;17.90;69.10;;;;;;5074341;28;19920;-66
2023/08/08 06:59:31;;;;;;;;;;;17.90;69.10;;;;;;5074153;28;19924;-66
2023/08/08 07:01:56;;;;;;;;;;;17.90;69.10;;;;;;5074130;28;20019;-66
2023/08/08 07:04:22;;;;;;;;;;;17.90;69.10;;;;;;5092395;28;19928;-66
2023/08/08 07:06:48;;;;;;;;;;;17.90;69.10;;;;;;5095519;28;20390;-66
2023/08/08 07:09:14;;;;;;;;;;;17.90;69.10;;;;;;5078538;28;19978;-66
2023/08/08 07:11:40;;;;;;;;;;;17.90;69.10;;;;;;5078599;28;19930;-66
2023/08/08 07:14:05;;;;;;;;;;;17.90;69.10;;;;;;5078550;28;19920;-66
2023/08/08 07:16:30;;;;;;;;;;;17.90;69.10;;;;;;5096370;28;19927;-66
2023/08/08 07:18:56;;;;;;;;;;;17.90;69.10;;;;;;5078176;28;19920;-67
2023/08/08 07:21:21;;;;;;;;;;;17.90;69.10;;;;;;5078364;28;19924;-68
2023/08/08 07:23:47;;;;;;;;;;;17.90;69.10;;;;;;5078342;28;19973;-66
2023/08/08 07:26:12;;;;;;;;;;;17.90;69.10;;;;;;5096308;28;19920;-66
2023/08/08 07:28:38;;;;;;;;;;;17.90;69.10;;;;;;5096211;28;19927;-66
2023/08/08 07:31:03;;;;;;;;;;;17.90;69.00;;;;;;5094726;28;19924;-66
2023/08/08 07:33:29;;;;;;;;;;;17.90;69.00;;;;;;5077807;28;20387;-66
2023/08/08 07:35:54;;;;;;;;;;;17.90;69.00;;;;;;5096203;28;19927;-66
2023/08/08 07:38:20;;;;;;;;;;;17.90;69.00;;;;;;5095973;28;19943;-66
2023/08/08 07:40:46;;;;;;;;;;;17.90;69.00;;;;;;5078042;28;19973;-66
2023/08/08 07:43:11;;;;;;;;;;;17.90;69.00;;;;;;5077865;28;19977;-66
2023/08/08 07:45:37;;;;;;;;;;;17.90;69.00;;;;;;5077924;28;19920;-67
2023/08/08 07:48:03;;;;;;;;;;;17.90;68.90;;;;;;5095018;28;19932;-66
2023/08/08 07:50:29;;;;;;;;;;;17.90;68.90;;;;;;5077286;28;20007;-66
2023/08/08 07:52:54;;;;;;;;;;;17.90;68.90;;;;;;5077805;28;20010;-73
2023/08/08 07:55:20;;;;;;;;;;;18.00;69.00;;;;;;5077680;28;19920;-66
2023/08/08 07:57:45;;;;;;;;;;;18.00;68.90;;;;;;5095589;28;19920;-66
2023/08/08 08:00:12;;;;;;;;;;;18.00;68.90;;;;;;5094601;28;19926;-66
2023/08/08 08:02:38;;;;;;;;;;;18.00;68.90;;;;;;5077460;28;20363;-66
2023/08/08 08:05:07;;;;;;;;;;;17.90;68.80;;;;;;5077573;28;19973;-64
2023/08/08 08:07:33;;;;;;;;;;;18.00;68.80;;;;;;5077227;28;19928;-72
2023/08/08 08:09:59;;;;;;;;;;;18.00;68.80;;;;;;5094627;28;20338;-64
2023/08/08 08:12:24;;;;;;;;;;;18.00;68.70;;;;;;5076907;28;19921;-64
2023/08/08 08:14:50;;;;;;;;;;;18.00;68.70;;;;;;5077529;28;19920;-64
2023/08/08 08:17:15;;;;;;;;;;;18.00;68.70;;;;;;5076554;28;20448;-64
2023/08/08 08:19:41;;;;;;;;;;;18.00;68.60;;;;;;5076882;28;19920;-64
2023/08/08 08:22:06;;;;;;;;;;;18.00;68.60;;;;;;5077260;28;20271;-64
2023/08/08 08:24:32;;;;;;;;;;;18.00;68.50;;;;;;5077287;28;19971;-64
2023/08/08 08:26:57;;;;;;;;;;;18.00;68.50;;;;;;5076903;28;19920;-65
2023/08/08 08:29:23;;;;;;;;;;;18.00;68.40;;;;;;5076715;28;19924;-64
2023/08/08 08:31:48;;;;;;;;;;;18.00;68.50;;;;;;5094945;28;19989;-64
2023/08/08 08:34:14;;;;;;;;;;;18.00;68.40;;;;;;5077102;28;19920;-65
2023/08/08 08:36:39;;;;;;;;;;;18.00;68.40;;;;;;5077002;28;19924;-64
2023/08/08 08:39:05;;;;;;;;;;;18.00;68.30;;;;;;5076623;28;19920;-64
2023/08/08 08:41:31;;;;;;;;;;;18.00;68.30;;;;;;5076929;28;19920;-64
2023/08/08 08:43:56;;;;;;;;;;;18.00;68.30;;;;;;5076575;28;19973;-64
2023/08/08 08:46:24;;;;;;;;;;;18.00;68.30;;;;;;5076891;28;19927;-64
2023/08/08 08:48:50;;;;;;;;;;;18.10;68.30;;;;;;5076464;28;19951;-65
2023/08/08 08:51:16;;;;;;;;;;;18.00;68.20;;;;;;5094419;28;20371;-64
2023/08/08 08:53:46;;;;;;;;;;;18.00;68.20;;;;;;5076574;28;19927;-64
2023/08/08 08:56:13;;;;;;;;;;;18.10;68.20;;;;;;5094681;28;20255;-64
2023/08/08 08:58:39;;;;;;;;;;;18.00;68.20;;;;;;5076613;28;19920;-64
2023/08/08 09:01:05;;;;;;;;;;;18.00;68.20;;;;;;5076586;28;20006;-64
2023/08/08 09:03:30;;;;;;;;;;;18.00;68.20;;;;;;5076451;28;20020;-64
2023/08/08 09:05:57;;;;;;;;;;;18.00;68.10;;;;;;5094287;28;20016;-63
2023/08/08 09:08:22;;;;;;;;;;;18.00;68.10;;;;;;5093015;28;19927;-64
2023/08/08 09:10:48;;;;;;;;;;;18.00;68.10;;;;;;5076049;28;19924;-64
2023/08/08 09:13:13;;;;;;;;;;;18.10;68.20;;;;;;5094199;28;20019;-64
2023/08/08 09:15:39;;;;;;;;;;;18.00;68.10;;;;;;5094094;28;19928;-64
2023/08/08 09:18:06;;;;;;;;;;;18.10;68.10;;;;;;5094088;28;19955;-64
2023/08/08 09:20:32;;;;;;;;;;;18.10;68.10;;;;;;5092975;28;20081;-64
2023/08/08 09:22:57;;;;;;;;;;;18.10;68.00;;;;;;5092989;28;20218;-62
2023/08/08 09:25:23;;;;;;;;;;;18.00;68.00;;;;;;5069996;28;20179;-63
2023/08/08 09:27:50;;;;;;;;;;;18.10;68.70;;;;;;5093988;28;19924;-64
2023/08/08 09:30:16;;;;;;;;;;;18.20;68.90;;;;;;5074361;28;20444;-63
2023/08/08 09:32:43;;;;;;;;;;;18.30;68.80;;;;;;5093696;28;19920;-64
2023/08/08 09:35:10;;;;;;;;;;;18.40;68.70;;;;;;5092753;28;20424;-63
2023/08/08 09:37:35;;;;;;;;;;;18.50;68.60;;;;;;5093587;28;19927;-64
2023/08/08 09:40:05;;;;;;;;;;;18.60;68.70;;;;;;5075686;28;19920;-63
2023/08/08 09:42:31;;;;;;;;;;;18.60;68.60;;;;;;5075557;28;19928;-64
2023/08/08 09:44:57;;;;;;;;;;;18.70;68.70;;;;;;5093155;28;19920;-70
2023/08/08 09:47:23;;;;;;;;;;;18.70;68.90;;;;;;5093290;28;20398;-71
2023/08/08 09:49:49;;;;;;;;;;;18.70;68.80;;;;;;5075155;28;19924;-63
2023/08/08 09:52:14;;;;;;;;;;;18.60;68.80;;;;;;5075435;28;20011;-63
2023/08/08 09:54:41;;;;;;;;;;;18.70;68.70;;;;;;5075167;28;19936;-64
2023/08/08 09:57:07;;;;;;;;;;;18.70;68.60;;;;;;5093444;28;19960;-64
2023/08/08 09:59:32;;;;;;;;;;;18.60;68.60;;;;;;5075401;28;20422;-64
2023/08/08 10:01:58;;;;;;;;;;;18.60;68.60;;;;;;5093163;28;19920;-64
2023/08/08 10:04:24;;;;;;;;;;;18.60;68.70;;;;;;5075345;28;20437;-64
2023/08/08 10:06:50;;;;;;;;;;;18.50;68.70;;;;;;5092997;28;19920;-65
2023/08/08 10:09:16;;;;;;;;;;;18.50;68.70;;;;;;5093053;28;19926;-71
2023/08/08 10:11:42;;;;;;;;;;;18.50;68.80;;;;;;5075096;28;19920;-64
2023/08/08 10:14:10;;;;;;;;;;;18.50;68.80;;;;;;5093193;28;20292;-71
2023/08/08 10:16:36;;;;;;;;;;;18.40;68.80;;;;;;5092950;28;19924;-71
2023/08/08 10:19:03;;;;;;;;;;;18.40;68.90;;;;;;5075032;28;20002;-64
2023/08/08 10:21:32;;;;;;;;;;;18.40;68.90;;;;;;5074561;28;19920;-64
2023/08/08 10:24:02;;;;;;;;;;;18.40;68.90;;;;;;5092853;28;19924;-64
2023/08/08 10:26:28;;;;;;;;;;;18.40;68.90;;;;;;5092734;28;20368;-71
2023/08/08 10:28:57;;;;;;;;;;;18.40;69.00;;;;;;5074999;28;19920;-64
2023/08/08 10:31:22;;;;;;;;;;;18.40;69.00;;;;;;5074427;28;19928;-63
2023/08/08 10:33:48;;;;;;;;;;;18.40;69.00;;;;;;5074605;28;19920;-71
2023/08/08 10:36:13;;;;;;;;;;;18.30;68.90;;;;;;5092599;28;19920;-63
2023/08/08 10:38:40;;;;;;;;;;;18.30;69.00;;;;;;5074854;28;19920;-64
2023/08/08 10:41:08;;;;;;;;;;;18.30;69.00;;;;;;5074227;28;19920;-63
2023/08/08 10:43:33;;;;;;;;;;;18.30;69.00;;;;;;5092733;28;19920;-63
2023/08/08 10:46:02;;;;;;;;;;;18.30;69.10;;;;;;5092680;28;20406;-63
2023/08/08 10:48:28;;;;;;;;;;;18.30;69.10;;;;;;5074481;28;19920;-64
2023/08/08 10:50:57;;;;;;;;;;;18.30;69.10;;;;;;5073852;28;21301;-63
2023/08/08 10:53:25;;;;;;;;;;;18.30;69.10;;;;;;5092385;28;19920;-64
2023/08/08 10:56:11;;;;;;;;;;;18.30;69.10;;;;;;5092506;28;19973;-63
2023/08/08 11:01:16;;;;;;;;;;;18.30;69.20;;;;;;5110304;27;19964;-63
2023/08/08 11:03:44;;;;;;;;;;;18.30;69.10;;;;;;5108976;28;19923;-64
2023/08/08 11:06:10;;;;;;;;;;;18.30;69.20;;;;;;5110232;28;19920;-64
2023/08/08 11:08:38;;;;;;;;;;;18.30;69.20;;;;;;5108871;28;19924;-63
2023/08/08 11:11:04;;;;;;;;;;;18.30;69.20;;;;;;5109246;28;19920;-63
2023/08/08 11:13:30;;;;;;;;;;;18.30;69.20;;;;;;5108734;28;19926;-70
2023/08/08 11:15:55;;;;;;;;;;;18.30;69.20;;;;;;5109130;28;20003;-63
2023/08/08 11:18:21;;;;;;;;;;;18.30;69.20;;;;;;5109850;28;19924;-64
2023/08/08 11:20:47;;;;;;;;;;;18.30;69.20;;;;;;5108632;28;19924;-64
2023/08/08 11:23:13;;;;;;;;;;;18.30;69.20;;;;;;5109803;28;19920;-64
2023/08/08 11:25:41;;;;;;;;;;;18.30;69.30;;;;;;5108576;28;19924;-64
2023/08/08 11:28:07;;;;;;;;;;;18.30;69.30;;;;;;5108847;28;19920;-64
2023/08/08 11:30:37;;;;;;;;;;;18.30;69.30;;;;;;5109786;28;19920;-64
2023/08/08 11:33:03;;;;;;;;;;;18.30;69.30;;;;;;5110169;28;19959;-63
2023/08/08 11:35:28;;;;;;;;;;;18.30;69.40;;;;;;5109599;28;19943;-64
2023/08/08 11:37:55;;;;;;;;;;;18.30;69.40;;;;;;5108662;28;19998;-64
2023/08/08 11:40:23;;;;;;;;;;;18.30;69.40;;;;;;5109455;28;19931;-64
2023/08/08 11:42:50;;;;;;;;;;;18.30;69.40;;;;;;5108121;28;19948;-63
2023/08/08 11:45:16;;;;;;;;;;;18.30;69.40;;;;;;5108488;28;19920;-63
2023/08/08 11:47:41;;;;;;;;;;;18.30;69.40;;;;;;5108101;28;19920;-71
2023/08/08 11:50:08;;;;;;;;;;;18.30;69.40;;;;;;5108077;28;19924;-64
2023/08/08 11:52:35;;;;;;;;;;;18.30;69.50;;;;;;5108106;28;19920;-64
2023/08/08 11:55:01;;;;;;;;;;;18.30;69.50;;;;;;5107969;28;19920;-64
2023/08/08 11:57:27;;;;;;;;;;;18.30;69.50;;;;;;5108285;28;19927;-65
2023/08/08 11:59:53;;;;;;;;;;;18.30;69.50;;;;;;5107566;28;19931;-66
2023/08/08 12:02:18;;;;;;;;;;;18.30;70.30;;;;;;5108048;28;20303;-64
2023/08/08 12:04:45;;;;;;;;;;;18.30;69.50;;;;;;5108126;28;19927;-64
2023/08/08 12:07:11;;;;;;;;;;;18.30;69.60;;;;;;5107712;28;19920;-63
2023/08/08 12:09:37;;;;;;;;;;;18.30;69.50;;;;;;5106956;28;19927;-64
2023/08/08 12:12:02;;;;;;;;;;;18.30;69.50;;;;;;5098279;28;19930;-64
2023/08/08 12:14:28;;;;;;;;;;;18.30;69.60;;;;;;5094096;28;19977;-64
2023/08/08 12:16:54;;;;;;;;;;;18.30;69.60;;;;;;5094249;28;19926;-63
2023/08/08 12:19:24;;;;;;;;;;;18.30;69.60;;;;;;5093882;28;19928;-64
2023/08/08 12:21:51;;;;;;;;;;;18.30;69.60;;;;;;5077080;28;20012;-64
2023/08/08 12:24:17;;;;;;;;;;;18.30;69.70;;;;;;5094184;28;19947;-64
2023/08/08 12:26:43;;;;;;;;;;;18.30;69.60;;;;;;5095515;28;20294;-64
2023/08/08 12:29:08;;;;;;;;;;;18.30;69.60;;;;;;5093850;28;19924;-64
2023/08/08 12:31:34;;;;;;;;;;;18.30;69.60;;;;;;5093728;28;20177;-63
2023/08/08 12:34:00;;;;;;;;;;;18.30;69.70;;;;;;5095222;28;20275;-64
2023/08/08 12:36:25;;;;;;;;;;;18.30;69.70;;;;;;5095091;28;19920;-64
2023/08/08 12:38:51;;;;;;;;;;;18.30;69.70;;;;;;5093579;28;19928;-72
2023/08/08 12:41:16;;;;;;;;;;;18.30;69.70;;;;;;5093837;28;19920;-64
2023/08/08 12:43:42;;;;;;;;;;;18.30;69.80;;;;;;5093894;28;20325;-64
2023/08/08 12:46:07;;;;;;;;;;;18.30;69.70;;;;;;5094724;28;20182;-64
2023/08/08 12:48:33;;;;;;;;;;;18.30;69.80;;;;;;5093682;28;19919;-64
2023/08/08 12:50:58;;;;;;;;;;;18.30;69.80;;;;;;5093404;28;20283;-64
2023/08/08 12:53:24;;;;;;;;;;;18.30;69.80;;;;;;5093319;28;19920;-64
2023/08/08 12:55:49;;;;;;;;;;;18.30;69.80;;;;;;5093781;28;19920;-64
2023/08/08 12:58:16;;;;;;;;;;;18.30;69.80;;;;;;5093506;28;19920;-72
2023/08/08 13:00:42;;;;;;;;;;;18.30;69.80;;;;;;5094206;28;20286;-64
2023/08/08 13:03:07;;;;;;;;;;;18.30;69.80;;;;;;5094216;28;19920;-72
2023/08/08 13:05:33;;;;;;;;;;;18.30;69.80;;;;;;5093356;28;19928;-64
2023/08/08 13:07:58;;;;;;;;;;;18.30;69.80;;;;;;5094349;28;20391;-64
2023/08/08 13:10:24;;;;;;;;;;;18.30;69.80;;;;;;5093330;28;20002;-64
2023/08/08 13:12:50;;;;;;;;;;;18.30;69.80;;;;;;5093064;28;19920;-64
2023/08/08 13:15:15;;;;;;;;;;;18.30;69.80;;;;;;5093123;28;19927;-73
2023/08/08 13:17:41;;;;;;;;;;;18.30;69.80;;;;;;5092746;28;19920;-64
2023/08/08 13:20:07;;;;;;;;;;;18.30;69.90;;;;;;5093980;28;19930;-63
2023/08/08 13:22:33;;;;;;;;;;;18.30;69.90;;;;;;5092186;28;20282;-64
2023/08/08 13:24:58;;;;;;;;;;;18.30;69.80;;;;;;5092866;28;19931;-64
2023/08/08 13:27:24;;;;;;;;;;;18.30;69.80;;;;;;5092929;28;20028;-64
2023/08/08 13:29:49;;;;;;;;;;;18.30;69.80;;;;;;5093753;28;20383;-64
2023/08/08 13:32:15;;;;;;;;;;;18.30;69.80;;;;;;5093569;28;19973;-64
2023/08/08 13:34:40;;;;;;;;;;;18.30;69.80;;;;;;5092517;28;19924;-64
2023/08/08 13:37:06;;;;;;;;;;;18.30;69.80;;;;;;5094053;28;19965;-64
2023/08/08 13:39:31;;;;;;;;;;;18.30;69.80;;;;;;5093573;28;19924;-64
2023/08/08 13:41:57;;;;;;;;;;;18.30;69.80;;;;;;5092719;28;19924;-64
2023/08/08 13:44:22;;;;;;;;;;;18.30;69.80;;;;;;5092330;28;19920;-64
2023/08/08 13:46:47;;;;;;;;;;;18.30;69.80;;;;;;5092633;28;20351;-72
2023/08/08 13:49:13;;;;;;;;;;;18.30;69.80;;;;;;5092518;28;19920;-72
2023/08/08 13:51:38;;;;;;;;;;;18.30;69.90;;;;;;5092172;28;20390;-72
2023/08/08 13:54:04;;;;;;;;;;;18.30;69.80;;;;;;5093431;28;19980;-72
2023/08/08 13:56:29;;;;;;;;;;;18.30;69.80;;;;;;5093408;28;20299;-69
2023/08/08 13:58:55;;;;;;;;;;;18.30;69.80;;;;;;5092996;28;19924;-72
2023/08/08 14:01:21;;;;;;;;;;;18.30;69.80;;;;;;5091983;28;19930;-72
2023/08/08 14:03:46;;;;;;;;;;;18.30;69.80;;;;;;5093234;28;19920;-63
2023/08/08 14:06:12;;;;;;;;;;;18.30;69.90;;;;;;5093698;28;20279;-63
2023/08/08 14:08:37;;;;;;;;;;;18.30;69.80;;;;;;5092400;28;19920;-72
2023/08/08 14:11:03;;;;;;;;;;;18.30;69.90;;;;;;5091916;28;20393;-71